createdAt,value
2018-06-08T00:02:21.069Z,100117.45
2018-06-08T00:04:50.506Z,100105.68
2018-06-08T00:07:20.058Z,100108.64
2018-06-08T00:09:49.597Z,100109.81
2018-06-08T00:12:19.215Z,100110.14
2018-06-08T00:14:48.883Z,100105.34
2018-06-08T00:17:18.497Z,100110.23
2018-06-08T00:19:48.237Z,100108.63
2018-06-08T00:22:17.805Z,100111.59
2018-06-08T00:24:47.392Z,100112.45
2018-06-08T00:27:17.049Z,100100.84
2018-06-08T00:29:46.619Z,100096.30
2018-06-08T00:32:16.199Z,100102.71
2018-06-08T00:34:45.873Z,100097.63
2018-06-08T00:37:15.485Z,100099.55
2018-06-08T00:39:44.751Z,100097.39
2018-06-08T00:42:14.321Z,100087.66
2018-06-08T00:44:43.934Z,100095.18
2018-06-08T00:47:13.653Z,100090.36
2018-06-08T00:49:43.228Z,100086.84
2018-06-08T00:52:13.504Z,100087.94
2018-06-08T00:54:43.083Z,100088.17
2018-06-08T00:57:12.808Z,100089.84
2018-06-08T00:59:42.346Z,100087.94
2018-06-08T01:02:11.925Z,100091.47
2018-06-08T01:04:41.504Z,100094.98
2018-06-08T01:07:11.089Z,100089.37
2018-06-08T01:09:40.680Z,100091.00
2018-06-08T01:12:10.357Z,100090.45
2018-06-08T01:14:40.065Z,100084.20
2018-06-08T01:17:09.732Z,100087.23
2018-06-08T01:19:39.467Z,100084.23
2018-06-08T01:22:09.194Z,100086.69
2018-06-08T01:24:38.814Z,100086.70
2018-06-08T01:27:08.454Z,100083.18
2018-06-08T01:29:38.128Z,100078.88
2018-06-08T01:32:07.739Z,100074.56
2018-06-08T01:34:37.423Z,100073.76
2018-06-08T01:37:07.108Z,100072.97
2018-06-08T01:39:36.390Z,100081.90
2018-06-08T01:42:05.977Z,100080.30
2018-06-08T01:44:35.569Z,100086.75
2018-06-08T01:47:05.294Z,100088.34
2018-06-08T01:49:34.903Z,100091.61
2018-06-08T01:52:04.539Z,100093.79
2018-06-08T01:54:34.205Z,100088.11
2018-06-08T01:57:03.838Z,100095.35
2018-06-08T01:59:35.800Z,100091.02
2018-06-08T02:02:08.713Z,100097.72
2018-06-08T02:04:38.275Z,100097.18
2018-06-08T02:07:07.865Z,100101.06
2018-06-08T02:09:37.497Z,100099.18
2018-06-08T02:12:07.068Z,100097.30
2018-06-08T02:14:36.688Z,100102.73
2018-06-08T02:17:06.405Z,100098.11
2018-06-08T02:19:35.956Z,100098.92
2018-06-08T02:22:05.525Z,100104.32
2018-06-08T02:24:35.065Z,100100.83
2018-06-08T02:27:04.655Z,100105.44
2018-06-08T02:29:34.248Z,100104.89
2018-06-08T02:32:04.475Z,100102.47
2018-06-08T02:34:34.008Z,100104.89
2018-06-08T02:37:03.817Z,100102.74
2018-06-08T02:39:33.386Z,100098.16
2018-06-08T02:42:03.003Z,100101.39
2018-06-08T02:44:32.595Z,100095.47
2018-06-08T02:47:02.319Z,100097.86
2018-06-08T02:49:31.836Z,100100.30
2018-06-08T02:52:01.398Z,100098.16
2018-06-08T02:54:30.932Z,100096.54
2018-06-08T02:57:00.545Z,100091.64
2018-06-08T02:59:30.114Z,100089.49
2018-06-08T03:01:59.653Z,100088.68
2018-06-08T03:04:29.338Z,100088.68
2018-06-08T03:06:59.016Z,100083.52
2018-06-08T03:09:28.631Z,100079.76
2018-06-08T03:11:58.339Z,100088.67
2018-06-08T03:14:27.999Z,100089.47
2018-06-08T03:16:57.538Z,100088.09
2018-06-08T03:19:27.177Z,100078.40
2018-06-08T03:21:56.703Z,100084.34
2018-06-08T03:24:26.397Z,100081.64
2018-06-08T03:26:56.036Z,100080.27
2018-06-08T03:29:25.649Z,100083.52
2018-06-08T03:31:55.263Z,100082.09
2018-06-08T03:34:24.910Z,100082.92
2018-06-08T03:36:54.560Z,100082.36
2018-06-08T03:39:24.216Z,100077.97
2018-06-08T03:41:53.813Z,100080.15
2018-06-08T03:44:23.373Z,100082.30
2018-06-08T03:46:53.100Z,100080.15
2018-06-08T03:49:22.654Z,100069.58
2018-06-08T03:51:52.275Z,100072.56
2018-06-08T03:54:21.892Z,100083.40
2018-06-08T03:56:51.456Z,100081.39
2018-06-08T03:59:21.138Z,100076.91
2018-06-08T04:01:50.765Z,100077.80
2018-06-08T04:04:20.250Z,100081.17
2018-06-08T04:06:49.900Z,100079.45
2018-06-08T04:09:19.430Z,100082.22
2018-06-08T04:11:49.024Z,100081.96
2018-06-08T04:14:18.599Z,100080.80
2018-06-08T04:16:48.346Z,100081.46
2018-06-08T04:19:17.989Z,100075.96
2018-06-08T04:21:47.625Z,100084.04
2018-06-08T04:24:17.172Z,100079.45
2018-06-08T04:26:46.743Z,100090.66
2018-06-08T04:29:16.335Z,100083.06
2018-06-08T04:31:46.799Z,100087.47
2018-06-08T04:34:16.357Z,100088.50
2018-06-08T04:36:45.980Z,100086.02
2018-06-08T04:39:15.524Z,100083.67
2018-06-08T04:41:45.128Z,100083.66
2018-06-08T04:44:14.708Z,100081.96
2018-06-08T04:46:44.327Z,100080.09
2018-06-08T04:49:13.942Z,100091.09
2018-06-08T04:51:43.629Z,100094.59
2018-06-08T04:54:13.221Z,100094.16
2018-06-08T04:56:42.850Z,100094.00
2018-06-08T04:59:12.447Z,100102.30
2018-06-08T05:01:42.024Z,100101.77
2018-06-08T05:04:11.562Z,100108.24
2018-06-08T05:06:41.869Z,100101.69
2018-06-08T05:09:11.564Z,100103.05
2018-06-08T05:11:41.136Z,100106.30
2018-06-08T05:14:10.728Z,100111.30
2018-06-08T05:16:40.292Z,100111.66
2018-06-08T05:19:09.897Z,100112.08
2018-06-08T05:21:39.471Z,100113.53
2018-06-08T05:24:09.094Z,100111.26
2018-06-08T05:26:38.645Z,100129.08
2018-06-08T05:29:08.326Z,100130.45
2018-06-08T05:31:37.900Z,100131.95
2018-06-08T05:34:07.461Z,100136.47
2018-06-08T05:36:37.090Z,100137.64
2018-06-08T05:39:09.664Z,100141.10
2018-06-08T05:41:39.308Z,100137.92
2018-06-08T05:44:08.948Z,100139.60
2018-06-08T05:46:38.490Z,100142.00
2018-06-08T05:49:08.219Z,100138.03
2018-06-08T05:51:37.876Z,100147.97
2018-06-08T05:54:07.439Z,100139.79
2018-06-08T05:56:37.112Z,100138.89
2018-06-08T05:59:06.865Z,100142.14
2018-06-08T06:01:36.577Z,100144.29
2018-06-08T06:04:06.198Z,100144.09
2018-06-08T06:06:35.829Z,100149.76
2018-06-08T06:09:09.190Z,100144.30
2018-06-08T06:11:38.824Z,100145.58
2018-06-08T06:14:08.487Z,100150.44
2018-06-08T06:16:38.074Z,100152.71
2018-06-08T06:19:07.778Z,100148.09
2018-06-08T06:21:37.498Z,100149.39
2018-06-08T06:24:07.116Z,100152.49
2018-06-08T06:26:37.283Z,100153.61
2018-06-08T06:29:06.990Z,100153.63
2018-06-08T06:31:38.783Z,100160.05
2018-06-08T06:34:08.536Z,100156.30
2018-06-08T06:36:39.457Z,100155.27
2018-06-08T06:39:09.877Z,100158.77
2018-06-08T06:41:39.728Z,100146.94
2018-06-08T06:44:09.502Z,100141.65
2018-06-08T06:46:39.253Z,100148.41
2018-06-08T06:49:08.854Z,100154.98
2018-06-08T06:51:38.570Z,100160.74
2018-06-08T06:54:08.309Z,100150.16
2018-06-08T06:56:37.908Z,100154.59
2018-06-08T06:59:07.548Z,100155.08
2018-06-08T07:01:37.202Z,100156.92
2018-06-08T07:04:06.821Z,100152.74
2018-06-08T07:06:36.466Z,100151.41
2018-06-08T07:09:09.529Z,100149.53
2018-06-08T07:11:39.142Z,100149.47
2018-06-08T07:14:08.827Z,100149.67
2018-06-08T07:16:38.489Z,100145.97
2018-06-08T07:19:14.910Z,100138.04
2018-06-08T07:21:44.671Z,100143.10
2018-06-08T07:24:14.526Z,100137.24
2018-06-08T07:26:44.265Z,100143.02
2018-06-08T07:29:13.832Z,100144.19
2018-06-08T07:31:43.509Z,100142.22
2018-06-08T07:34:13.137Z,100137.63
2018-06-08T07:36:42.775Z,100140.14
2018-06-08T07:39:12.363Z,100145.45
2018-06-08T07:41:42.008Z,100145.48
2018-06-08T07:44:11.722Z,100146.17
2018-06-08T07:46:41.404Z,100147.68
2018-06-08T07:49:11.092Z,100143.02
2018-06-08T07:51:40.727Z,100145.20
2018-06-08T07:54:10.365Z,100135.56
2018-06-08T07:56:40.164Z,100139.56
2018-06-08T07:59:09.744Z,100136.77
2018-06-08T08:01:39.408Z,100137.23
2018-06-08T08:04:08.976Z,100137.85
2018-06-08T08:06:38.602Z,100142.02
2018-06-08T08:09:10.310Z,100138.87
2018-06-08T08:11:39.867Z,100138.15
2018-06-08T08:14:09.458Z,100138.02
2018-06-08T08:16:38.984Z,100148.36
2018-06-08T08:19:08.598Z,100147.09
2018-06-08T08:21:38.297Z,100142.63
2018-06-08T08:24:07.858Z,100146.68
2018-06-08T08:26:37.716Z,100150.69
2018-06-08T08:29:07.347Z,100148.11
2018-06-08T08:31:36.890Z,100151.88
2018-06-08T08:34:06.725Z,100152.28
2018-06-08T08:36:36.355Z,100150.69
2018-06-08T08:39:09.516Z,100150.19
2018-06-08T08:41:39.193Z,100145.53
2018-06-08T08:44:08.799Z,100156.53
2018-06-08T08:46:38.363Z,100157.73
2018-06-08T08:49:07.933Z,100158.91
2018-06-08T08:51:37.693Z,100158.02
2018-06-08T08:54:07.324Z,100159.91
2018-06-08T08:56:36.867Z,100158.05
2018-06-08T08:59:06.492Z,100157.02
2018-06-08T09:01:36.011Z,100158.47
2018-06-08T09:04:05.766Z,100155.30
2018-06-08T09:06:35.267Z,100157.38
2018-06-08T09:09:06.459Z,100142.86
2018-06-08T09:11:36.046Z,100150.35
2018-06-08T09:14:05.929Z,100141.80
2018-06-08T09:16:35.666Z,100138.91
2018-06-08T09:19:05.233Z,100137.55
2018-06-08T09:21:34.850Z,100136.42
2018-06-08T09:24:04.417Z,100141.49
2018-06-08T09:26:34.038Z,100147.97
2018-06-08T09:29:03.664Z,100141.96
2018-06-08T09:31:33.394Z,100142.94
2018-06-08T09:34:03.129Z,100140.62
2018-06-08T09:36:32.794Z,100135.84
2018-06-08T09:39:02.454Z,100138.58
2018-06-08T09:41:32.145Z,100132.32
2018-06-08T09:44:01.788Z,100133.98
2018-06-08T09:46:31.743Z,100129.64
2018-06-08T09:49:01.366Z,100136.52
2018-06-08T09:51:31.022Z,100133.28
2018-06-08T09:54:00.657Z,100143.22
2018-06-08T09:56:30.393Z,100139.95
2018-06-08T09:59:00.227Z,100131.13
2018-06-08T10:01:29.806Z,100132.23
2018-06-08T10:03:59.390Z,100128.78
2018-06-08T10:06:28.985Z,100127.11
2018-06-08T10:08:58.596Z,100130.65
2018-06-08T10:11:28.312Z,100123.03
2018-06-08T10:13:57.982Z,100135.37
2018-06-08T10:16:27.691Z,100127.51
2018-06-08T10:18:57.370Z,100126.81
2018-06-08T10:21:26.919Z,100130.92
2018-06-08T10:23:56.586Z,100121.99
2018-06-08T10:26:26.274Z,100118.95
2018-06-08T10:28:55.882Z,100118.72
2018-06-08T10:31:25.454Z,100118.00
2018-06-08T10:33:55.160Z,100104.28
2018-06-08T10:36:24.804Z,100102.66
2018-06-08T10:38:54.341Z,100110.12
2018-06-08T10:41:23.974Z,100105.02
2018-06-08T10:43:53.551Z,100101.68
2018-06-08T10:46:23.157Z,100091.17
2018-06-08T10:48:52.749Z,100088.42
2018-06-08T10:51:22.425Z,100078.34
2018-06-08T10:53:52.083Z,100072.25
2018-06-08T10:56:21.634Z,100068.73
2018-06-08T10:58:51.187Z,100070.36
2018-06-08T11:01:20.708Z,100080.08
2018-06-08T11:03:50.233Z,100089.62
2018-06-08T11:06:19.771Z,100081.61
2018-06-08T11:08:49.430Z,100081.78
2018-06-08T11:11:19.333Z,100069.63
2018-06-08T11:13:48.926Z,100076.80
2018-06-08T11:16:18.443Z,100070.64
2018-06-08T11:18:48.052Z,100066.95
2018-06-08T11:21:17.690Z,100062.12
2018-06-08T11:23:47.213Z,100063.20
2018-06-08T11:26:16.746Z,100093.09
2018-06-08T11:28:46.296Z,100099.94
2018-06-08T11:31:15.870Z,100096.84
2018-06-08T11:33:45.476Z,100096.92
2018-06-08T11:36:15.106Z,100102.72
2018-06-08T11:38:44.658Z,100127.07
2018-06-08T11:41:14.279Z,100133.29
2018-06-08T11:43:43.921Z,100151.27
2018-06-08T11:46:13.479Z,100160.50
2018-06-08T11:48:43.057Z,100140.54
2018-06-08T11:51:12.632Z,100112.66
2018-06-08T11:53:42.184Z,100127.70
2018-06-08T11:56:11.829Z,100137.87
2018-06-08T11:58:41.456Z,100151.39
2018-06-08T12:01:10.999Z,100155.45
2018-06-08T12:03:40.578Z,100150.30
2018-06-08T12:06:10.097Z,100163.78
2018-06-08T12:08:39.708Z,100165.90
2018-06-08T12:11:09.469Z,100181.25
2018-06-08T12:13:39.095Z,100187.86
2018-06-08T12:16:08.729Z,100197.45
2018-06-08T12:18:38.419Z,100193.81
2018-06-08T12:21:08.333Z,100191.36
2018-06-08T12:23:37.946Z,100191.08
2018-06-08T12:26:07.828Z,100200.72
2018-06-08T12:28:37.479Z,100185.28
2018-06-08T12:31:07.148Z,100176.75
2018-06-08T12:33:36.838Z,100171.23
2018-06-08T12:36:07.082Z,100171.02
2018-06-08T12:38:36.697Z,100167.80
2018-06-08T12:41:06.339Z,100173.05
2018-06-08T12:43:35.995Z,100175.70
2018-06-08T12:46:05.703Z,100177.81
2018-06-08T12:48:35.220Z,100174.17
2018-06-08T12:51:04.872Z,100181.19
2018-06-08T12:53:34.528Z,100191.12
2018-06-08T12:56:04.302Z,100181.73
2018-06-08T12:58:33.924Z,100180.27
2018-06-08T13:01:03.584Z,100187.66
2018-06-08T13:03:33.145Z,100182.35
2018-06-08T13:06:02.821Z,100171.90
2018-06-08T13:08:32.500Z,100160.36
2018-06-08T13:11:02.203Z,100168.75
2018-06-08T13:13:31.938Z,100164.62
2018-06-08T13:16:01.548Z,100160.01
2018-06-08T13:18:31.198Z,100163.94
2018-06-08T13:21:00.858Z,100168.07
2018-06-08T13:23:30.629Z,100167.36
2018-06-08T13:26:00.231Z,100162.59
2018-06-08T13:28:29.894Z,100153.07
2018-06-08T13:30:59.499Z,100148.06
2018-06-08T13:33:29.136Z,100149.86
2018-06-08T13:35:58.773Z,100149.39
2018-06-08T13:38:28.409Z,100153.25
2018-06-08T13:40:58.036Z,100150.86
2018-06-08T13:43:27.691Z,100146.77
2018-06-08T13:45:57.310Z,100147.01
2018-06-08T13:48:26.866Z,100153.87
2018-06-08T13:50:56.490Z,100148.11
2018-06-08T13:53:26.034Z,100145.34
2018-06-08T13:55:55.716Z,100148.73
2018-06-08T13:58:25.330Z,100142.98
2018-06-08T14:00:55.041Z,100131.20
2018-06-08T14:03:24.715Z,100134.16
2018-06-08T14:05:54.971Z,100120.30
2018-06-08T14:08:24.600Z,100113.72
2018-06-08T14:10:54.233Z,100107.34
2018-06-08T14:13:24.469Z,100106.23
2018-06-08T14:15:54.079Z,100101.36
2018-06-08T14:18:23.765Z,100090.82
2018-06-08T14:20:53.546Z,100087.50
2018-06-08T14:23:23.223Z,100089.81
2018-06-08T14:25:52.883Z,100091.91
2018-06-08T14:28:22.555Z,100087.66
2018-06-08T14:30:52.155Z,100082.38
2018-06-08T14:33:21.757Z,100076.06
2018-06-08T14:35:51.353Z,100093.86
2018-06-08T14:38:21.013Z,100093.51
2018-06-08T14:40:50.736Z,100095.77
2018-06-08T14:43:20.443Z,100093.61
2018-06-08T14:45:50.030Z,100092.18
2018-06-08T14:48:19.682Z,100095.69
2018-06-08T14:50:48.963Z,100101.92
2018-06-08T14:53:25.047Z,100099.73
2018-06-08T14:55:54.664Z,100099.05
2018-06-08T14:58:24.329Z,100095.92
2018-06-08T15:00:53.920Z,100091.45
2018-06-08T15:03:23.592Z,100095.88
2018-06-08T15:05:53.238Z,100088.85
2018-06-08T15:08:22.888Z,100095.04
2018-06-08T15:10:52.479Z,100091.98
2018-06-08T15:13:22.157Z,100094.73
2018-06-08T15:15:51.815Z,100092.83
2018-06-08T15:18:21.670Z,100091.00
2018-06-08T15:20:51.331Z,100081.26
2018-06-08T15:23:21.485Z,100078.33
2018-06-08T15:25:51.233Z,100077.12
2018-06-08T15:28:21.206Z,100072.88
2018-06-08T15:30:50.944Z,100072.83
2018-06-08T15:33:20.768Z,100071.00
2018-06-08T15:35:50.820Z,100067.41
2018-06-08T15:38:20.538Z,100061.95
2018-06-08T15:40:50.217Z,100066.30
2018-06-08T15:43:20.286Z,100063.42
2018-06-08T15:45:50.125Z,100063.77
2018-06-08T15:48:20.075Z,100057.81
2018-06-08T15:50:49.916Z,100064.03
2018-06-08T15:53:19.684Z,100058.36
2018-06-08T15:55:49.312Z,100058.94
2018-06-08T15:58:19.113Z,100054.59
2018-06-08T16:00:48.851Z,100058.43
2018-06-08T16:03:18.557Z,100056.44
2018-06-08T16:05:48.487Z,100061.09
2018-06-08T16:08:18.272Z,100056.30
2018-06-08T16:10:48.110Z,100051.48
2018-06-08T16:13:17.851Z,100050.69
2018-06-08T16:15:47.495Z,100047.45
2018-06-08T16:18:17.503Z,100040.23
2018-06-08T16:20:47.869Z,100030.39
2018-06-08T16:23:17.842Z,100037.04
2018-06-08T16:25:47.877Z,100042.61
2018-06-08T16:28:17.781Z,100040.09
2018-06-08T16:30:47.696Z,100032.87
2018-06-08T16:33:17.389Z,100021.44
2018-06-08T16:35:47.415Z,100019.42
2018-06-08T16:38:17.351Z,100016.38
2018-06-08T16:40:47.382Z,100011.56
2018-06-08T16:43:17.168Z,100016.55
2018-06-08T16:45:46.844Z,100012.67
2018-06-08T16:48:16.605Z,100016.58
2018-06-08T16:50:46.263Z,100015.41
2018-06-08T16:53:15.938Z,100021.02
2018-06-08T16:55:45.579Z,100023.45
2018-06-08T16:58:14.931Z,100030.85
2018-06-08T17:00:45.121Z,100022.89
2018-06-08T17:03:15.137Z,100020.09
2018-06-08T17:05:44.797Z,100022.58
2018-06-08T17:08:14.540Z,100024.66
2018-06-08T17:10:44.342Z,100034.61
2018-06-08T17:13:14.059Z,100035.35
2018-06-08T17:15:43.442Z,100032.21
2018-06-08T17:18:13.106Z,100035.66
2018-06-08T17:20:42.741Z,100031.33
2018-06-08T17:23:12.404Z,100030.37
2018-06-08T17:25:42.069Z,100032.78
2018-06-08T17:28:11.711Z,100038.36
2018-06-08T17:30:41.435Z,100035.30
2018-06-08T17:33:11.070Z,100039.02
2018-06-08T17:35:40.660Z,100039.59
2018-06-08T17:38:10.284Z,100038.56
2018-06-08T17:40:39.846Z,100041.47
2018-06-08T17:43:09.436Z,100045.81
2018-06-08T17:45:39.179Z,100045.15
2018-06-08T17:48:08.898Z,100047.39
2018-06-08T17:50:38.610Z,100050.66
2018-06-08T17:53:08.369Z,100055.95
2018-06-08T17:55:38.209Z,100052.58
2018-06-08T17:58:07.840Z,100059.95
2018-06-08T18:00:37.504Z,100060.94
2018-06-08T18:03:08.175Z,100058.91
2018-06-08T18:05:37.526Z,100062.19
2018-06-08T18:08:07.493Z,100061.38
2018-06-08T18:10:36.858Z,100063.02
2018-06-08T18:13:06.589Z,100056.62
2018-06-08T18:15:35.840Z,100054.39
2018-06-08T18:18:05.418Z,100060.80
2018-06-08T18:20:35.386Z,100057.56
2018-06-08T18:23:05.239Z,100063.05
2018-06-08T18:25:34.639Z,100066.47
2018-06-08T18:28:04.257Z,100071.25
2018-06-08T18:30:34.255Z,100063.61
2018-06-08T18:33:04.093Z,100060.31
2018-06-08T18:35:34.005Z,100064.87
2018-06-08T18:38:03.771Z,100063.86
2018-06-08T18:40:33.853Z,100060.13
2018-06-08T18:43:03.515Z,100060.89
2018-06-08T18:45:33.273Z,100062.84
2018-06-08T18:48:03.038Z,100056.50
2018-06-08T18:50:32.917Z,100064.95
2018-06-08T18:53:02.500Z,100057.53
2018-06-08T18:55:32.117Z,100061.27
2018-06-08T18:58:01.807Z,100062.91
2018-06-08T19:00:31.492Z,100066.33
2018-06-08T19:03:01.114Z,100064.88
2018-06-08T19:05:30.673Z,100063.52
2018-06-08T19:08:00.308Z,100061.97
2018-06-08T19:10:29.954Z,100069.73
2018-06-08T19:12:59.721Z,100067.84
2018-06-08T19:15:29.546Z,100076.40
2018-06-08T19:17:59.174Z,100072.33
2018-06-08T19:20:28.992Z,100081.84
2018-06-08T19:22:58.749Z,100077.61
2018-06-08T19:25:28.519Z,100079.19
2018-06-08T19:27:57.974Z,100074.95
2018-06-08T19:30:28.002Z,100076.69
2018-06-08T19:32:57.801Z,100078.28
2018-06-08T19:35:27.414Z,100082.67
2018-06-08T19:37:57.009Z,100084.09
2018-06-08T19:40:26.596Z,100089.52
2018-06-08T19:42:56.133Z,100090.09
2018-06-08T19:45:25.744Z,100089.66
2018-06-08T19:47:55.324Z,100097.13
2018-06-08T19:50:24.913Z,100097.79
2018-06-08T19:52:54.643Z,100091.73
2018-06-08T19:55:24.279Z,100098.27
2018-06-08T19:57:53.844Z,100098.27
2018-06-08T20:00:23.471Z,100093.16
2018-06-08T20:02:53.092Z,100097.27
2018-06-08T20:05:22.912Z,100100.55
2018-06-08T20:07:52.562Z,100099.82
2018-06-08T20:10:22.250Z,100103.96
2018-06-08T20:12:52.481Z,100104.81
2018-06-08T20:15:22.146Z,100103.27
2018-06-08T20:17:51.736Z,100101.43
2018-06-08T20:20:21.413Z,100103.08
2018-06-08T20:22:51.121Z,100103.94
2018-06-08T20:25:20.745Z,100103.99
2018-06-08T20:27:50.380Z,100101.58
2018-06-08T20:30:20.026Z,100104.23
2018-06-08T20:32:49.682Z,100102.88
2018-06-08T20:35:19.314Z,100102.59
2018-06-08T20:37:49.016Z,100099.52
2018-06-08T20:40:18.714Z,100094.46
2018-06-08T20:42:48.503Z,100095.88
2018-06-08T20:45:18.311Z,100095.70
2018-06-08T20:47:50.479Z,100090.97
2018-06-08T20:50:19.720Z,100088.36
2018-06-08T20:52:49.402Z,100089.23
2018-06-08T20:55:19.157Z,100093.58
2018-06-08T20:57:59.383Z,100093.28
2018-06-08T21:00:29.137Z,100084.71
2018-06-08T21:02:58.804Z,100089.38
2018-06-08T21:05:29.405Z,100088.88
2018-06-08T21:07:59.247Z,100087.27
2018-06-08T21:10:29.121Z,100089.68
2018-06-08T21:12:58.786Z,100093.79
2018-06-08T21:15:28.634Z,100091.33
2018-06-08T21:17:58.192Z,100094.63
2018-06-08T21:20:27.975Z,100093.28
2018-06-08T21:22:57.726Z,100091.92
2018-06-08T21:25:27.448Z,100093.78
2018-06-08T21:27:57.194Z,100094.64
2018-06-08T21:30:26.979Z,100094.15
2018-06-08T21:32:56.702Z,100098.73
2018-06-08T21:35:26.504Z,100103.86
2018-06-08T21:37:56.253Z,100100.61
2018-06-08T21:40:26.170Z,100096.34
2018-06-08T21:42:56.062Z,100099.30
2018-06-08T21:45:25.883Z,100103.36
2018-06-08T21:47:55.745Z,100103.66
2018-06-08T21:50:25.735Z,100097.48
2018-06-08T21:52:55.812Z,100101.42
2018-06-08T21:55:25.523Z,100103.14
2018-06-08T21:57:57.270Z,100101.36
2018-06-08T22:00:27.033Z,100110.58
2018-06-08T22:02:56.809Z,100110.33
2018-06-08T22:05:26.536Z,100104.37
2018-06-08T22:07:56.196Z,100103.81
2018-06-08T22:10:25.860Z,100101.12
2018-06-08T22:12:55.592Z,100096.52
2018-06-08T22:15:25.722Z,100100.05
2018-06-08T22:17:55.395Z,100096.00
2018-06-08T22:20:25.297Z,100098.19
2018-06-08T22:22:55.307Z,100094.98
2018-06-08T22:25:25.743Z,100096.30
2018-06-08T22:27:55.762Z,100091.69
2018-06-08T22:30:25.984Z,100093.01
2018-06-08T22:32:56.136Z,100088.69
2018-06-08T22:35:25.770Z,100091.47
2018-06-08T22:37:55.407Z,100084.94
2018-06-08T22:40:25.000Z,100082.05
2018-06-08T22:42:54.905Z,100086.62
2018-06-08T22:45:24.515Z,100083.66
2018-06-08T22:47:53.822Z,100077.48
2018-06-08T22:50:23.558Z,100078.29
2018-06-08T22:52:53.382Z,100072.38
2018-06-08T22:55:23.032Z,100070.22
2018-06-08T22:57:52.498Z,100071.59
2018-06-08T23:00:22.592Z,100068.94
2018-06-08T23:02:52.412Z,100073.28
2018-06-08T23:05:22.134Z,100072.25
2018-06-08T23:07:52.284Z,100074.11
2018-06-08T23:10:21.955Z,100078.68
2018-06-08T23:12:51.952Z,100077.94
2018-06-08T23:15:21.673Z,100076.04
2018-06-08T23:17:51.813Z,100068.52
2018-06-08T23:20:21.408Z,100066.88
2018-06-08T23:22:51.146Z,100067.42
2018-06-08T23:25:20.790Z,100056.91
2018-06-08T23:27:50.575Z,100061.47
2018-06-08T23:30:20.162Z,100051.79
2018-06-08T23:32:50.476Z,100049.34
2018-06-08T23:35:20.116Z,100046.99
2018-06-08T23:37:49.796Z,100051.33
2018-06-08T23:40:19.503Z,100050.26
2018-06-08T23:42:49.169Z,100048.67
2018-06-08T23:45:18.878Z,100053.81
2018-06-08T23:47:48.483Z,100059.21
2018-06-08T23:50:18.062Z,100052.48
2018-06-08T23:52:47.712Z,100043.59
2018-06-08T23:55:17.240Z,100041.16
2018-06-08T23:57:46.759Z,100040.08
